createdAt,value
2018-05-18T00:02:28.114Z,4.87
2018-05-18T00:04:56.237Z,6.33
2018-05-18T00:07:24.367Z,6.77
2018-05-18T00:09:52.514Z,7.30
2018-05-18T00:12:20.655Z,6.53
2018-05-18T00:14:48.761Z,7.07
2018-05-18T00:17:16.893Z,7.43
2018-05-18T00:19:45.031Z,10.93
2018-05-18T00:22:13.176Z,10.97
2018-05-18T00:24:41.323Z,11.13
2018-05-18T00:27:09.494Z,8.80
2018-05-18T00:29:37.628Z,7.53
2018-05-18T00:32:05.776Z,7.80
2018-05-18T00:34:33.887Z,6.63
2018-05-18T00:37:02.049Z,5.47
2018-05-18T00:39:30.200Z,5.57
2018-05-18T00:41:58.309Z,5.73
2018-05-18T00:44:26.439Z,5.30
2018-05-18T00:46:54.861Z,8.43
2018-05-18T00:49:22.992Z,10.00
2018-05-18T00:51:51.106Z,9.43
2018-05-18T00:54:19.252Z,10.97
2018-05-18T00:56:47.373Z,7.90
2018-05-18T00:59:15.696Z,9.40
2018-05-18T01:01:43.829Z,9.13
2018-05-18T01:04:11.957Z,7.00
2018-05-18T01:06:40.081Z,7.97
2018-05-18T01:09:08.436Z,7.30
2018-05-18T01:11:36.554Z,7.63
2018-05-18T01:14:04.696Z,6.30
2018-05-18T01:16:32.833Z,6.13
2018-05-18T01:19:00.957Z,6.07
2018-05-18T01:21:29.096Z,7.57
2018-05-18T01:23:57.257Z,9.27
2018-05-18T01:26:25.381Z,11.40
2018-05-18T01:28:53.525Z,12.80
2018-05-18T01:31:21.687Z,10.20
2018-05-18T01:33:49.799Z,11.27
2018-05-18T01:36:18.511Z,9.63
2018-05-18T01:38:46.638Z,7.37
2018-05-18T01:41:14.751Z,6.23
2018-05-18T01:43:42.922Z,6.17
2018-05-18T01:46:11.241Z,4.40
2018-05-18T01:48:39.347Z,4.57
2018-05-18T01:51:07.468Z,4.50
2018-05-18T01:53:35.621Z,4.87
2018-05-18T01:56:03.716Z,4.53
2018-05-18T01:58:31.852Z,4.73
2018-05-18T02:00:59.966Z,5.10
2018-05-18T02:03:28.095Z,4.70
2018-05-18T02:05:56.211Z,6.70
2018-05-18T02:08:24.349Z,6.70
2018-05-18T02:10:52.467Z,5.80
2018-05-18T02:13:20.584Z,6.87
2018-05-18T02:15:48.748Z,6.73
2018-05-18T02:18:16.875Z,7.53
2018-05-18T02:20:44.996Z,7.77
2018-05-18T02:23:13.323Z,7.17
2018-05-18T02:25:41.435Z,7.83
2018-05-18T02:28:09.561Z,8.67
2018-05-18T02:30:37.723Z,7.73
2018-05-18T02:33:05.841Z,7.47
2018-05-18T02:35:33.980Z,6.80
2018-05-18T02:38:02.261Z,5.43
2018-05-18T02:40:30.406Z,5.17
2018-05-18T02:42:58.535Z,4.97
2018-05-18T02:45:26.799Z,4.27
2018-05-18T02:47:54.952Z,4.93
2018-05-18T02:50:23.080Z,4.13
2018-05-18T02:52:51.201Z,4.07
2018-05-18T02:55:19.380Z,4.33
2018-05-18T02:57:47.506Z,5.40
2018-05-18T03:00:15.635Z,5.63
2018-05-18T03:02:44.187Z,7.40
2018-05-18T03:05:12.423Z,7.53
2018-05-18T03:07:41.101Z,7.97
2018-05-18T03:10:09.249Z,7.47
2018-05-18T03:12:37.376Z,7.20
2018-05-18T03:15:05.522Z,7.03
2018-05-18T03:17:33.640Z,6.30
2018-05-18T03:20:01.771Z,5.87
2018-05-18T03:22:29.911Z,5.23
2018-05-18T03:24:58.033Z,4.90
2018-05-18T03:27:26.147Z,5.13
2018-05-18T03:29:54.297Z,5.00
2018-05-18T03:32:22.411Z,4.50
2018-05-18T03:34:50.545Z,4.23
2018-05-18T03:37:18.877Z,4.60
2018-05-18T03:39:47.068Z,4.47
2018-05-18T03:42:15.241Z,4.07
2018-05-18T03:44:43.365Z,4.30
2018-05-18T03:47:11.576Z,3.57
2018-05-18T03:49:39.701Z,4.20
2018-05-18T03:52:07.832Z,3.80
2018-05-18T03:54:35.954Z,4.03
2018-05-18T03:57:04.083Z,4.87
2018-05-18T03:59:32.213Z,4.60
2018-05-18T04:02:12.364Z,4.70
2018-05-18T04:08:11.069Z,6.30
2018-05-18T04:10:39.188Z,5.30
2018-05-18T04:13:07.343Z,4.73
2018-05-18T04:15:35.443Z,4.50
2018-05-18T04:18:03.582Z,4.27
2018-05-18T04:20:31.691Z,5.23
2018-05-18T04:22:59.867Z,4.90
2018-05-18T04:25:27.942Z,5.07
2018-05-18T04:27:56.055Z,5.50
2018-05-18T04:30:24.231Z,5.33
2018-05-18T04:32:52.305Z,4.50
2018-05-18T04:35:20.429Z,4.90
2018-05-18T04:37:48.558Z,5.07
2018-05-18T04:40:16.694Z,4.50
2018-05-18T04:42:44.829Z,4.93
2018-05-18T04:45:12.949Z,4.47
2018-05-18T04:47:41.074Z,4.23
2018-05-18T04:50:09.218Z,4.37
2018-05-18T04:52:37.344Z,3.93
2018-05-18T04:55:05.472Z,3.77
2018-05-18T04:57:33.616Z,3.80
2018-05-18T05:00:01.727Z,4.80
2018-05-18T05:02:29.861Z,5.40
2018-05-18T05:04:57.981Z,5.67
2018-05-18T05:07:26.119Z,5.37
2018-05-18T05:09:54.276Z,5.17
2018-05-18T05:12:22.400Z,5.10
2018-05-18T05:14:50.512Z,4.83
2018-05-18T05:17:18.833Z,5.07
2018-05-18T05:19:46.959Z,4.93
2018-05-18T05:22:15.083Z,6.03
2018-05-18T05:24:43.208Z,4.63
2018-05-18T05:27:11.334Z,5.23
2018-05-18T05:29:39.446Z,5.40
2018-05-18T05:32:07.615Z,5.23
2018-05-18T05:34:35.741Z,5.30
2018-05-18T05:37:04.030Z,4.40
2018-05-18T05:39:32.169Z,4.10
2018-05-18T05:42:00.285Z,4.20
2018-05-18T05:44:28.399Z,4.30
2018-05-18T05:46:56.927Z,4.40
2018-05-18T05:49:25.011Z,4.10
2018-05-18T05:51:53.133Z,4.37
2018-05-18T05:54:21.269Z,5.47
2018-05-18T05:56:49.397Z,4.80
2018-05-18T05:59:17.539Z,5.33
2018-05-18T06:01:45.659Z,5.37
2018-05-18T06:04:13.778Z,5.10
2018-05-18T06:06:41.901Z,4.57
2018-05-18T06:09:10.064Z,4.00
2018-05-18T06:11:38.199Z,4.00
2018-05-18T06:14:06.321Z,4.50
2018-05-18T06:16:35.167Z,3.97
2018-05-18T06:19:03.315Z,4.47
2018-05-18T06:21:31.453Z,4.20
2018-05-18T06:23:59.593Z,4.90
2018-05-18T06:26:27.720Z,6.07
2018-05-18T06:28:55.908Z,7.50
2018-05-18T06:31:24.064Z,6.00
2018-05-18T06:33:52.203Z,6.50
2018-05-18T06:36:20.325Z,8.07
2018-05-18T06:38:48.480Z,7.17
2018-05-18T06:41:16.629Z,5.83
2018-05-18T06:43:44.748Z,6.13
2018-05-18T06:46:12.877Z,6.43
2018-05-18T06:48:41.020Z,6.50
2018-05-18T06:51:09.137Z,8.27
2018-05-18T06:53:37.255Z,8.33
2018-05-18T06:56:05.367Z,8.73
2018-05-18T06:58:37.237Z,9.50
2018-05-18T07:01:05.315Z,9.27
2018-05-18T07:03:33.440Z,8.50
2018-05-18T07:06:01.573Z,10.07
2018-05-18T07:08:29.822Z,10.33
2018-05-18T07:10:57.940Z,9.47
2018-05-18T07:13:26.058Z,8.77
2018-05-18T07:15:54.205Z,9.10
2018-05-18T07:18:22.330Z,8.53
2018-05-18T07:20:50.458Z,8.40
2018-05-18T07:23:18.624Z,8.00
2018-05-18T07:25:46.771Z,11.43
2018-05-18T07:28:14.888Z,16.20
2018-05-18T07:30:43.209Z,15.47
2018-05-18T07:33:11.323Z,17.13
2018-05-18T07:35:39.440Z,16.70
2018-05-18T07:38:07.582Z,12.73
2018-05-18T07:40:35.698Z,11.80
2018-05-18T07:43:03.962Z,10.80
2018-05-18T07:45:32.272Z,10.50
2018-05-18T07:48:00.426Z,11.27
2018-05-18T07:50:28.549Z,12.20
2018-05-18T07:52:56.688Z,9.30
2018-05-18T07:55:24.827Z,7.93
2018-05-18T07:57:52.963Z,6.70
2018-05-18T08:00:21.110Z,6.47
2018-05-18T08:02:49.215Z,6.47
2018-05-18T08:05:17.359Z,7.83
2018-05-18T08:07:45.536Z,10.70
2018-05-18T08:10:13.628Z,11.40
2018-05-18T08:12:41.765Z,19.53
2018-05-18T08:15:09.976Z,18.57
2018-05-18T08:17:38.030Z,21.47
2018-05-18T08:20:06.166Z,20.30
2018-05-18T08:22:34.289Z,20.67
2018-05-18T08:25:02.407Z,20.10
2018-05-18T08:27:30.535Z,16.63
2018-05-18T08:29:58.883Z,13.20
2018-05-18T08:32:26.996Z,10.40
2018-05-18T08:34:55.165Z,7.27
2018-05-18T08:37:23.434Z,5.80
2018-05-18T08:39:51.565Z,5.93
2018-05-18T08:42:19.708Z,7.23
2018-05-18T08:44:47.848Z,7.90
2018-05-18T08:47:15.974Z,7.93
2018-05-18T08:49:44.103Z,10.40
2018-05-18T08:52:13.037Z,9.07
2018-05-18T08:54:41.165Z,8.33
2018-05-18T08:57:09.300Z,7.70
2018-05-18T08:59:37.456Z,8.20
2018-05-18T09:02:05.573Z,8.67
2018-05-18T09:04:33.684Z,9.60
2018-05-18T09:07:01.829Z,10.57
2018-05-18T09:09:29.938Z,11.60
2018-05-18T09:11:58.073Z,12.00
2018-05-18T09:14:26.391Z,9.53
2018-05-18T09:16:54.529Z,8.53
2018-05-18T09:19:22.663Z,7.27
2018-05-18T09:21:50.789Z,8.13
2018-05-18T09:24:18.914Z,7.83
2018-05-18T09:26:47.044Z,7.03
2018-05-18T09:29:15.155Z,9.23
2018-05-18T09:31:43.300Z,7.87
2018-05-18T09:34:11.508Z,8.13
2018-05-18T09:36:39.770Z,7.00
2018-05-18T09:39:07.886Z,7.70
2018-05-18T09:41:36.003Z,6.90
2018-05-18T09:44:04.141Z,7.00
2018-05-18T09:46:32.261Z,6.87
2018-05-18T09:49:00.389Z,6.93
2018-05-18T09:51:28.529Z,7.03
2018-05-18T09:53:56.646Z,6.57
2018-05-18T09:56:24.788Z,7.07
2018-05-18T09:58:52.936Z,8.57
2018-05-18T10:01:21.064Z,9.10
2018-05-18T10:03:49.170Z,10.97
2018-05-18T10:06:17.309Z,8.03
2018-05-18T10:08:45.439Z,8.30
2018-05-18T10:11:13.572Z,8.80
2018-05-18T10:13:41.714Z,8.03
2018-05-18T10:16:09.819Z,8.20
2018-05-18T10:18:37.946Z,7.90
2018-05-18T10:21:06.088Z,8.00
2018-05-18T10:23:34.213Z,7.87
2018-05-18T10:26:02.319Z,6.50
2018-05-18T10:28:30.451Z,6.27
2018-05-18T10:30:58.591Z,5.97
2018-05-18T10:33:26.714Z,5.30
2018-05-18T10:35:54.853Z,6.27
2018-05-18T10:38:22.979Z,6.50
2018-05-18T10:40:51.109Z,6.40
2018-05-18T10:43:19.234Z,5.93
2018-05-18T10:45:47.355Z,5.83
2018-05-18T10:48:15.468Z,5.80
2018-05-18T10:50:46.549Z,6.27
2018-05-18T10:53:14.699Z,5.73
2018-05-18T10:55:42.804Z,6.10
2018-05-18T10:58:11.253Z,5.97
2018-05-18T11:00:39.373Z,6.47
2018-05-18T11:03:07.504Z,6.23
2018-05-18T11:05:35.622Z,6.20
2018-05-18T11:08:03.760Z,6.13
2018-05-18T11:10:31.881Z,6.53
2018-05-18T11:13:00.029Z,6.27
2018-05-18T11:15:28.170Z,6.40
2018-05-18T11:17:56.304Z,5.70
2018-05-18T11:20:24.420Z,5.90
2018-05-18T11:22:52.546Z,7.13
2018-05-18T11:25:20.661Z,6.73
2018-05-18T11:27:48.800Z,6.07
2018-05-18T11:30:16.918Z,6.67
2018-05-18T11:32:45.045Z,6.30
2018-05-18T11:35:13.162Z,7.10
2018-05-18T11:37:41.335Z,7.67
2018-05-18T11:40:09.468Z,6.87
2018-05-18T11:42:37.612Z,6.10
2018-05-18T11:45:05.738Z,5.83
2018-05-18T11:47:33.887Z,5.63
2018-05-18T11:50:02.005Z,6.37
2018-05-18T11:52:30.142Z,6.60
2018-05-18T11:54:58.312Z,7.10
2018-05-18T11:57:26.489Z,7.43
2018-05-18T11:59:54.609Z,7.23
2018-05-18T12:02:22.727Z,6.90
2018-05-18T12:04:50.853Z,5.97
2018-05-18T12:07:18.985Z,5.93
2018-05-18T12:09:47.107Z,6.47
2018-05-18T12:12:15.238Z,5.37
2018-05-18T12:14:43.365Z,6.20
2018-05-18T12:17:11.492Z,6.00
2018-05-18T12:19:39.625Z,6.20
2018-05-18T12:22:07.749Z,5.70
2018-05-18T12:24:35.858Z,5.77
2018-05-18T12:27:04.009Z,6.20
2018-05-18T12:29:32.219Z,5.53
2018-05-18T12:32:00.360Z,5.63
2018-05-18T12:34:28.521Z,5.83
2018-05-18T12:36:56.619Z,4.80
2018-05-18T12:39:24.762Z,5.83
2018-05-18T12:41:52.875Z,5.37
2018-05-18T12:44:21.014Z,5.33
2018-05-18T12:46:49.145Z,5.20
2018-05-18T12:49:17.307Z,5.47
2018-05-18T12:51:45.474Z,5.77
2018-05-18T12:54:13.597Z,5.53
2018-05-18T12:56:41.752Z,5.67
2018-05-18T12:59:09.880Z,5.60
2018-05-18T13:01:38.005Z,5.40
2018-05-18T13:04:06.169Z,5.10
2018-05-18T13:06:34.299Z,5.60
2018-05-18T13:09:02.422Z,6.93
2018-05-18T13:11:30.534Z,6.20
2018-05-18T13:13:58.665Z,6.43
2018-05-18T13:16:26.785Z,5.47
2018-05-18T13:18:54.906Z,6.33
2018-05-18T13:21:23.033Z,6.40
2018-05-18T13:23:51.161Z,6.50
2018-05-18T13:26:19.320Z,5.87
2018-05-18T13:28:47.460Z,5.43
2018-05-18T13:31:15.574Z,5.90
2018-05-18T13:33:43.700Z,6.43
2018-05-18T13:36:11.835Z,5.77
2018-05-18T13:38:39.988Z,6.57
2018-05-18T13:41:08.111Z,6.93
2018-05-18T13:43:36.237Z,6.30
2018-05-18T13:46:04.365Z,6.43
2018-05-18T13:48:32.697Z,6.40
2018-05-18T13:51:00.831Z,7.40
2018-05-18T13:53:28.971Z,7.27
2018-05-18T13:55:57.304Z,6.30
2018-05-18T13:58:25.446Z,6.23
2018-05-18T14:00:53.591Z,6.10
2018-05-18T14:03:21.796Z,6.27
2018-05-18T14:05:49.895Z,6.20
2018-05-18T14:08:18.045Z,6.73
2018-05-18T14:10:46.196Z,7.13
2018-05-18T14:13:14.390Z,6.40
2018-05-18T14:15:42.573Z,5.90
2018-05-18T14:18:10.691Z,6.20
2018-05-18T14:20:38.815Z,6.80
2018-05-18T14:23:06.941Z,7.20
2018-05-18T14:25:35.096Z,6.33
2018-05-18T14:28:03.217Z,6.97
2018-05-18T14:30:31.341Z,6.67
2018-05-18T14:32:59.512Z,6.57
2018-05-18T14:35:27.638Z,7.10
2018-05-18T14:37:55.863Z,6.93
2018-05-18T14:40:24.031Z,6.93
2018-05-18T14:42:52.153Z,6.60
2018-05-18T14:45:20.273Z,6.27
2018-05-18T14:47:48.410Z,5.70
2018-05-18T14:50:16.551Z,6.20
2018-05-18T14:52:44.671Z,6.53
2018-05-18T14:55:12.803Z,6.10
2018-05-18T14:57:41.015Z,6.50
2018-05-18T15:00:09.145Z,6.30
2018-05-18T15:02:37.288Z,6.80
2018-05-18T15:05:05.413Z,6.30
2018-05-18T15:07:33.547Z,6.27
2018-05-18T15:10:01.714Z,6.70
2018-05-18T15:12:29.834Z,5.57
2018-05-18T15:14:57.979Z,5.53
2018-05-18T15:17:27.195Z,5.60
2018-05-18T15:19:55.360Z,5.70
2018-05-18T15:22:26.810Z,5.73
2018-05-18T15:24:58.778Z,6.37
2018-05-18T15:27:26.799Z,6.20
2018-05-18T15:29:55.054Z,5.50
2018-05-18T15:32:23.190Z,6.07
2018-05-18T15:34:51.493Z,5.10
2018-05-18T15:37:19.732Z,4.50
2018-05-18T15:39:47.820Z,5.83
2018-05-18T15:42:15.944Z,5.80
2018-05-18T15:44:44.047Z,6.57
2018-05-18T15:47:12.237Z,5.47
2018-05-18T15:49:40.341Z,5.67
2018-05-18T15:52:08.451Z,5.73
2018-05-18T15:54:36.584Z,6.40
2018-05-18T15:57:04.724Z,5.60
2018-05-18T15:59:32.858Z,5.80
2018-05-18T16:02:01.027Z,6.07
2018-05-18T16:04:29.145Z,5.90
2018-05-18T16:06:57.282Z,6.30
2018-05-18T16:09:25.469Z,5.80
2018-05-18T16:11:53.670Z,6.00
2018-05-18T16:14:22.070Z,5.33
2018-05-18T16:16:50.215Z,5.70
2018-05-18T16:19:18.333Z,6.40
2018-05-18T16:21:46.464Z,6.40
2018-05-18T16:24:15.628Z,5.87
2018-05-18T16:26:43.742Z,4.90
2018-05-18T16:29:11.888Z,5.30
2018-05-18T16:31:40.030Z,4.93
2018-05-18T16:34:08.148Z,5.27
2018-05-18T16:36:36.254Z,6.07
2018-05-18T16:39:04.394Z,5.10
2018-05-18T16:41:36.283Z,4.63
2018-05-18T16:44:04.419Z,5.10
2018-05-18T16:46:32.544Z,5.17
2018-05-18T16:49:00.669Z,4.97
2018-05-18T16:51:28.794Z,4.50
2018-05-18T16:53:56.952Z,4.83
2018-05-18T16:56:25.088Z,4.97
2018-05-18T16:58:53.222Z,5.00
2018-05-18T17:01:21.356Z,4.70
2018-05-18T17:03:49.491Z,4.83
2018-05-18T17:06:17.623Z,5.07
2018-05-18T17:08:45.743Z,5.30
2018-05-18T17:11:14.078Z,5.50
2018-05-18T17:13:42.211Z,4.47
2018-05-18T17:16:10.354Z,4.53
2018-05-18T17:18:38.488Z,4.53
2018-05-18T17:21:06.631Z,4.50
2018-05-18T17:23:34.996Z,4.90
2018-05-18T17:26:03.113Z,5.60
2018-05-18T17:28:31.235Z,5.43
2018-05-18T17:30:59.374Z,5.17
2018-05-18T17:33:27.503Z,5.93
2018-05-18T17:35:55.643Z,6.57
2018-05-18T17:38:23.777Z,5.97
2018-05-18T17:40:51.893Z,5.40
2018-05-18T17:43:20.009Z,5.00
2018-05-18T17:45:48.145Z,5.20
2018-05-18T17:48:18.163Z,5.03
2018-05-18T17:50:46.316Z,5.67
2018-05-18T17:53:14.453Z,5.60
2018-05-18T17:55:42.592Z,4.80
2018-05-18T17:58:10.714Z,5.10
2018-05-18T18:00:38.871Z,4.93
2018-05-18T18:03:07.004Z,5.37
2018-05-18T18:05:35.134Z,5.47
2018-05-18T18:08:03.265Z,5.33
2018-05-18T18:10:31.394Z,4.43
2018-05-18T18:12:59.532Z,4.87
2018-05-18T18:15:27.646Z,4.83
2018-05-18T18:17:55.778Z,4.77
2018-05-18T18:20:23.875Z,4.70
2018-05-18T18:22:52.004Z,4.90
2018-05-18T18:25:20.129Z,4.57
2018-05-18T18:27:48.272Z,5.30
2018-05-18T18:30:16.405Z,4.83
2018-05-18T18:32:44.526Z,4.10
2018-05-18T18:35:12.664Z,4.27
2018-05-18T18:37:40.779Z,4.47
2018-05-18T18:40:08.890Z,4.97
2018-05-18T18:42:37.024Z,4.30
2018-05-18T18:45:05.153Z,4.93
2018-05-18T18:47:33.400Z,4.67
2018-05-18T18:50:01.531Z,4.83
2018-05-18T18:52:29.653Z,4.10
2018-05-18T18:54:57.760Z,4.40
2018-05-18T18:57:25.905Z,4.93
2018-05-18T18:59:54.047Z,4.90
2018-05-18T19:02:22.178Z,5.00
2018-05-18T19:04:50.298Z,4.53
2018-05-18T19:07:18.588Z,4.80
2018-05-18T19:09:46.724Z,4.53
2018-05-18T19:12:14.827Z,4.90
2018-05-18T19:14:42.952Z,4.40
2018-05-18T19:17:11.078Z,4.13
2018-05-18T19:19:39.194Z,4.43
2018-05-18T19:22:07.333Z,4.53
2018-05-18T19:24:35.457Z,5.10
2018-05-18T19:27:03.605Z,4.23
2018-05-18T19:29:31.719Z,4.73
2018-05-18T19:31:59.860Z,4.30
2018-05-18T19:34:27.991Z,4.43
2018-05-18T19:36:56.298Z,4.57
2018-05-18T19:39:24.419Z,4.20
2018-05-18T19:41:52.976Z,4.37
2018-05-18T19:44:22.275Z,4.27
2018-05-18T19:46:50.413Z,4.93
2018-05-18T19:49:18.532Z,4.57
2018-05-18T19:51:47.148Z,4.23
2018-05-18T19:54:15.284Z,4.40
2018-05-18T19:56:43.427Z,4.90
2018-05-18T19:59:11.567Z,4.53
2018-05-18T20:01:39.676Z,4.13
2018-05-18T20:04:07.827Z,4.27
2018-05-18T20:06:35.948Z,4.17
2018-05-18T20:09:04.071Z,3.97
2018-05-18T20:11:32.305Z,4.20
2018-05-18T20:14:00.473Z,4.10
2018-05-18T20:16:28.612Z,3.90
2018-05-18T20:18:56.707Z,3.97
2018-05-18T20:21:24.842Z,4.07
2018-05-18T20:23:52.975Z,4.37
2018-05-18T20:26:21.115Z,3.70
2018-05-18T20:28:49.254Z,3.80
2018-05-18T20:31:17.389Z,4.43
2018-05-18T20:33:45.520Z,3.93
2018-05-18T20:36:13.638Z,4.50
2018-05-18T20:38:41.787Z,3.70
2018-05-18T20:41:09.921Z,3.60
2018-05-18T20:43:38.062Z,4.20
2018-05-18T20:46:06.183Z,3.93
2018-05-18T20:48:34.302Z,4.20
2018-05-18T20:51:02.723Z,4.23
2018-05-18T20:53:30.870Z,4.10
2018-05-18T20:55:58.988Z,4.13
2018-05-18T20:58:27.209Z,4.63
2018-05-18T21:00:55.236Z,3.77
2018-05-18T21:03:23.381Z,3.47
2018-05-18T21:05:51.507Z,4.27
2018-05-18T21:08:19.726Z,4.03
2018-05-18T21:10:47.824Z,4.17
2018-05-18T21:13:16.045Z,4.17
2018-05-18T21:15:44.178Z,3.87
2018-05-18T21:18:12.293Z,4.10
2018-05-18T21:20:40.460Z,3.63
2018-05-18T21:23:08.562Z,4.23
2018-05-18T21:25:36.725Z,4.43
2018-05-18T21:28:04.871Z,3.93
2018-05-18T21:30:33.059Z,4.53
2018-05-18T21:33:01.113Z,4.40
2018-05-18T21:35:29.253Z,4.70
2018-05-18T21:37:57.355Z,4.13
2018-05-18T21:40:25.480Z,4.40
2018-05-18T21:42:53.623Z,4.17
2018-05-18T21:45:21.733Z,4.50
2018-05-18T21:47:49.862Z,4.90
2018-05-18T21:50:18.020Z,4.30
2018-05-18T21:52:46.155Z,4.23
2018-05-18T21:55:14.301Z,4.30
2018-05-18T21:57:42.541Z,4.27
2018-05-18T22:00:10.647Z,3.83
2018-05-18T22:02:38.750Z,4.27
2018-05-18T22:05:06.884Z,4.43
2018-05-18T22:07:35.017Z,4.73
2018-05-18T22:10:03.118Z,4.77
2018-05-18T22:12:31.258Z,4.40
2018-05-18T22:14:59.385Z,5.07
2018-05-18T22:17:27.513Z,4.83
2018-05-18T22:19:55.645Z,5.03
2018-05-18T22:22:23.797Z,4.77
2018-05-18T22:24:51.919Z,4.50
2018-05-18T22:27:20.038Z,5.17
2018-05-18T22:29:48.219Z,5.13
2018-05-18T22:32:16.376Z,5.10
2018-05-18T22:34:44.491Z,4.30
2018-05-18T22:37:12.614Z,4.83
2018-05-18T22:39:40.741Z,5.00
2018-05-18T22:42:08.859Z,5.20
2018-05-18T22:44:37.003Z,4.70
2018-05-18T22:47:05.129Z,4.73
2018-05-18T22:49:33.247Z,5.07
2018-05-18T22:52:01.381Z,4.80
2018-05-18T22:54:29.520Z,5.07
2018-05-18T22:56:57.638Z,4.70
2018-05-18T22:59:25.890Z,4.63
2018-05-18T23:01:54.039Z,5.47
2018-05-18T23:04:22.191Z,5.00
2018-05-18T23:06:50.302Z,4.47
2018-05-18T23:09:18.431Z,5.40
2018-05-18T23:11:46.815Z,4.70
2018-05-18T23:14:14.936Z,4.83
2018-05-18T23:16:43.061Z,4.80
2018-05-18T23:19:11.202Z,4.97
2018-05-18T23:21:39.319Z,4.50
2018-05-18T23:24:07.446Z,4.97
2018-05-18T23:26:35.592Z,4.80
2018-05-18T23:29:03.719Z,5.50
2018-05-18T23:31:31.849Z,4.77
2018-05-18T23:34:00.195Z,4.93
2018-05-18T23:36:28.333Z,5.50
2018-05-18T23:38:56.451Z,5.00
2018-05-18T23:41:24.603Z,5.40
2018-05-18T23:43:52.712Z,5.13
2018-05-18T23:46:20.833Z,5.40
2018-05-18T23:48:48.955Z,5.10
2018-05-18T23:51:17.058Z,5.37
2018-05-18T23:53:45.166Z,5.27
2018-05-18T23:56:13.339Z,5.30
2018-05-18T23:58:41.457Z,5.63
